X  Schlie├čen METAR Luftfahrt Wetterdaten     EHKD De Kooy Airport
Temperatur
9°C Temperatur
8°C Taupunkt
94% Feuchtigkeit



Wind
15 MPS
24 KM/S
7 M/S
13 KTS



170°
S
Aktuelle Wetterlage

Leicht  Regen, Leicht  Nieseln Leicht Regen, Leicht Nieseln
Luftdruck 1003.05 (hPa) - 29.62 (inHg)
Sichtweite 6 (Meile) - 9.7 (Km)
Flughafen
Flughafen Code EHKD

Position : De Kooy Airport
Entfernung: 34 (mi)

Metar:
EHKD 291657Z AUTO 17013KT 9999 -RADZ FEW004 BKN006 BKN008 09/08 Q1003 YLO TEMPO 4500 DZ SCT005 OVC006

Zeit: 29-02-2024 17:57 CET